Time;durP1;ratioP1;P1;durP2;ratioP2;P2;SDS_P1;SDS_P2;PMS_P1;PMS_P2;Temp;Humidity;BMP_temperature;BMP_pressure;BME280_temperature;BME280_humidity;BME280_pressure;Samples;Min_cycle;Max_cycle;Signal;HPM_P1;HPM_P2
2022/12/24 00:00:55;;;;;;;46.80;7.05;;;;;;;;;;4995387;28;20608;-80
2022/12/24 00:03:21;;;;;;;58.70;8.20;;;;;;;;;;4987689;28;20766;-80
2022/12/24 00:05:48;;;;;;;51.63;9.38;;;;;;;;;;4992289;28;20113;-80
2022/12/24 00:08:14;;;;;;;46.15;7.38;;;;;;;;;;4984688;28;20450;-80
2022/12/24 00:10:40;;;;;;;51.50;7.97;;;;;;;;;;4983344;28;20452;-80
2022/12/24 00:13:06;;;;;;;49.83;7.53;;;;;;;;;;4986035;28;20487;-80
2022/12/24 00:15:32;;;;;;;48.72;6.82;;;;;;;;;;4988422;28;20431;-80
2022/12/24 00:17:58;;;;;;;46.78;7.57;;;;;;;;;;4984061;28;20035;-80
2022/12/24 00:20:24;;;;;;;54.83;7.60;;;;;;;;;;4986113;28;20095;-80
2022/12/24 00:22:51;;;;;;;53.20;7.47;;;;;;;;;;5002752;28;20034;-80
2022/12/24 00:25:17;;;;;;;48.72;7.22;;;;;;;;;;4986515;28;20027;-80
2022/12/24 00:27:43;;;;;;;45.92;7.05;;;;;;;;;;4993385;28;20081;-80
2022/12/24 00:30:10;;;;;;;45.42;5.80;;;;;;;;;;4990345;28;20158;-80
2022/12/24 00:32:37;;;;;;;46.65;7.65;;;;;;;;;;5001027;28;20189;-79
2022/12/24 00:35:03;;;;;;;51.80;7.88;;;;;;;;;;4985645;28;20403;-80
2022/12/24 00:37:29;;;;;;;55.45;8.40;;;;;;;;;;4986922;28;20026;-79
2022/12/24 00:39:56;;;;;;;48.90;6.72;;;;;;;;;;4982457;28;20042;-80
2022/12/24 00:42:22;;;;;;;58.83;8.15;;;;;;;;;;5001963;28;20381;-80
2022/12/24 00:44:48;;;;;;;48.83;7.00;;;;;;;;;;4990859;28;20046;-79
2022/12/24 00:47:14;;;;;;;58.58;8.52;;;;;;;;;;5003734;28;20108;-79
2022/12/24 00:49:40;;;;;;;55.92;8.55;;;;;;;;;;4986574;28;20472;-80
2022/12/24 00:52:06;;;;;;;50.30;7.28;;;;;;;;;;4980810;28;20022;-79
2022/12/24 00:54:32;;;;;;;50.63;7.40;;;;;;;;;;4984421;28;21779;-80
2022/12/24 00:56:58;;;;;;;52.17;8.32;;;;;;;;;;4991112;28;20037;-80
2022/12/24 00:59:24;;;;;;;61.70;7.15;;;;;;;;;;4987634;28;20051;-81
2022/12/24 01:01:50;;;;;;;50.28;8.10;;;;;;;;;;4984499;28;20403;-81
2022/12/24 01:07:01;;;;;;;59.40;7.88;;;;;;;;;;4984548;28;20137;-80
2022/12/24 01:09:27;;;;;;;60.42;7.85;;;;;;;;;;4986505;28;20038;-80
2022/12/24 01:12:14;;;;;;;59.95;9.30;;;;;;;;;;4985853;28;20038;-81
2022/12/24 01:14:41;;;;;;;56.53;7.53;;;;;;;;;;4983172;28;20033;-81
2022/12/24 01:17:07;;;;;;;58.95;7.97;;;;;;;;;;5004712;28;20124;-81
2022/12/24 01:19:34;;;;;;;69.47;9.15;;;;;;;;;;4983001;28;20158;-81
2022/12/24 01:22:00;;;;;;;55.13;8.00;;;;;;;;;;4985506;28;20070;-80
2022/12/24 01:24:26;;;;;;;57.47;8.63;;;;;;;;;;4997111;28;20027;-80
2022/12/24 01:26:52;;;;;;;69.43;10.70;;;;;;;;;;4985873;28;20118;-78
2022/12/24 01:29:18;;;;;;;71.90;8.93;;;;;;;;;;4988132;28;20039;-80
2022/12/24 01:31:44;;;;;;;56.35;8.73;;;;;;;;;;4990057;28;20027;-80
2022/12/24 01:34:11;;;;;;;57.42;8.40;;;;;;;;;;4993234;28;20089;-80
2022/12/24 01:36:38;;;;;;;56.80;7.85;;;;;;;;;;4995310;28;20030;-79
2022/12/24 01:39:04;;;;;;;73.88;8.98;;;;;;;;;;4995765;28;20085;-81
2022/12/24 01:44:38;;;;;;;61.47;8.82;;;;;;;;;;5005744;28;20042;-81
2022/12/24 01:47:04;;;;;;;57.88;8.27;;;;;;;;;;5009389;28;20026;-79
2022/12/24 01:49:30;;;;;;;67.35;8.15;;;;;;;;;;5003779;28;20094;-80
2022/12/24 01:52:13;;;;;;;65.78;7.60;;;;;;;;;;5012003;28;20038;-79
2022/12/24 01:54:43;;;;;;;67.35;7.78;;;;;;;;;;5030726;28;20018;-80
2022/12/24 01:57:18;;;;;;;61.63;7.55;;;;;;;;;;5032122;28;20155;-81
2022/12/24 01:59:45;;;;;;;57.65;7.53;;;;;;;;;;5004655;28;20026;-81
2022/12/24 02:02:12;;;;;;;56.22;8.07;;;;;;;;;;5005463;28;20027;-80
2022/12/24 02:05:01;;;;;;;86.40;11.75;;;;;;;;;;4992445;28;20058;-81
2022/12/24 02:07:28;;;;;;;66.72;8.98;;;;;;;;;;4992116;28;20439;-81
2022/12/24 02:09:56;;;;;;;63.08;8.93;;;;;;;;;;4989217;28;20046;-80
2022/12/24 02:12:22;;;;;;;58.95;8.75;;;;;;;;;;4979658;28;20037;-80
2022/12/24 02:14:49;;;;;;;72.60;8.88;;;;;;;;;;4991217;28;20329;-79
2022/12/24 02:17:24;;;;;;;72.38;8.00;;;;;;;;;;5003567;28;20095;-80
2022/12/24 02:20:09;;;;;;;56.53;7.53;;;;;;;;;;4990048;28;20029;-80
2022/12/24 02:22:47;;;;;;;54.80;8.13;;;;;;;;;;4990372;28;20049;-79
2022/12/24 02:25:36;;;;;;;60.00;7.35;;;;;;;;;;4986956;28;20045;-79
2022/12/24 02:28:21;;;;;;;65.25;8.27;;;;;;;;;;4996489;28;20129;-82
2022/12/24 02:30:53;;;;;;;63.53;6.88;;;;;;;;;;4987908;28;20030;-80
2022/12/24 02:33:20;;;;;;;66.85;9.15;;;;;;;;;;4988897;28;20054;-81
2022/12/24 02:35:52;;;;;;;50.80;8.20;;;;;;;;;;4985402;28;20033;-80
2022/12/24 02:38:25;;;;;;;70.10;9.50;;;;;;;;;;4990491;28;20057;-81
2022/12/24 02:40:53;;;;;;;62.75;9.55;;;;;;;;;;4983984;28;20534;-80
2022/12/24 02:43:22;;;;;;;55.97;8.65;;;;;;;;;;4987679;28;20019;-81
2022/12/24 02:45:52;;;;;;;65.05;8.40;;;;;;;;;;4987172;28;20080;-80
2022/12/24 02:48:19;;;;;;;54.65;8.18;;;;;;;;;;4972548;28;20380;-79
2022/12/24 02:50:56;;;;;;;67.38;9.95;;;;;;;;;;4984189;28;20025;-82
2022/12/24 02:53:22;;;;;;;53.55;7.82;;;;;;;;;;5002865;28;20243;-80
2022/12/24 02:55:58;;;;;;;64.00;7.97;;;;;;;;;;4986891;28;20044;-81
2022/12/24 02:58:37;;;;;;;63.80;8.80;;;;;;;;;;5002025;28;20436;-81
2022/12/24 03:01:15;;;;;;;60.58;9.25;;;;;;;;;;4991005;28;20111;-80
2022/12/24 03:03:53;;;;;;;49.95;6.80;;;;;;;;;;4984762;28;20034;-80
2022/12/24 03:06:19;;;;;;;49.33;7.53;;;;;;;;;;4990840;28;20126;-81
2022/12/24 03:08:54;;;;;;;43.75;6.93;;;;;;;;;;4988484;28;20061;-81
2022/12/24 03:11:20;;;;;;;49.53;8.63;;;;;;;;;;5001834;28;20038;-81
2022/12/24 03:13:47;;;;;;;60.13;7.65;;;;;;;;;;4990413;28;20027;-81
2022/12/24 03:16:16;;;;;;;52.17;7.25;;;;;;;;;;4986978;28;20033;-80
2022/12/24 03:18:44;;;;;;;56.30;6.97;;;;;;;;;;4989916;28;20050;-81
2022/12/24 03:21:11;;;;;;;49.10;7.07;;;;;;;;;;4989873;28;20031;-80
2022/12/24 03:23:37;;;;;;;51.20;7.35;;;;;;;;;;4985662;28;20061;-79
2022/12/24 03:26:06;;;;;;;58.05;6.28;;;;;;;;;;4989185;28;20122;-79
2022/12/24 03:28:33;;;;;;;59.08;7.18;;;;;;;;;;4985633;28;20041;-82
2022/12/24 03:31:04;;;;;;;65.40;8.10;;;;;;;;;;4998396;28;20053;-81
2022/12/24 03:33:30;;;;;;;;;;;;;;;;;;4986949;28;20123;-79
2022/12/24 03:35:57;;;;;;;57.42;7.55;;;;;;;;;;4998185;28;19910;-80
2022/12/24 03:38:23;;;;;;;48.78;7.13;;;;;;;;;;4989053;28;20388;-81
2022/12/24 03:40:51;;;;;;;60.95;7.88;;;;;;;;;;4982213;28;20026;-80
2022/12/24 03:43:17;;;;;;;49.42;7.50;;;;;;;;;;4988333;28;20056;-81
2022/12/24 03:45:43;;;;;;;65.05;7.82;;;;;;;;;;4984829;28;20400;-81
2022/12/24 03:48:10;;;;;;;61.88;7.88;;;;;;;;;;4986274;28;20049;-82
2022/12/24 03:50:37;;;;;;;62.38;9.23;;;;;;;;;;4990807;28;20034;-81
2022/12/24 03:53:03;;;;;;;75.22;7.60;;;;;;;;;;4991781;28;20031;-79
2022/12/24 03:55:29;;;;;;;70.53;9.65;;;;;;;;;;4983607;28;20038;-81
2022/12/24 03:57:55;;;;;;;53.55;9.07;;;;;;;;;;4989529;28;20037;-82
2022/12/24 04:00:21;;;;;;;61.70;8.13;;;;;;;;;;4991465;28;20129;-79
2022/12/24 04:02:47;;;;;;;72.38;9.52;;;;;;;;;;4987980;28;20436;-79
2022/12/24 04:05:15;;;;;;;85.90;11.23;;;;;;;;;;4985897;28;20046;-81
2022/12/24 04:07:42;;;;;;;78.35;10.18;;;;;;;;;;4986845;28;20467;-80
2022/12/24 04:10:09;;;;;;;67.28;8.75;;;;;;;;;;4988902;28;20376;-81
2022/12/24 04:12:35;;;;;;;76.25;10.77;;;;;;;;;;4986192;28;20478;-81
2022/12/24 04:15:01;;;;;;;80.72;10.63;;;;;;;;;;4972978;28;20052;-81
2022/12/24 04:17:27;;;;;;;82.07;10.27;;;;;;;;;;5002600;28;20443;-82
2022/12/24 04:19:53;;;;;;;97.20;12.18;;;;;;;;;;4987224;28;20088;-81
2022/12/24 04:22:19;;;;;;;79.07;9.07;;;;;;;;;;4985591;28;20097;-81
2022/12/24 04:24:46;;;;;;;87.00;9.85;;;;;;;;;;4986791;28;20370;-81
2022/12/24 04:27:13;;;;;;;68.72;8.75;;;;;;;;;;4986280;28;20488;-81
2022/12/24 04:29:39;;;;;;;69.65;8.73;;;;;;;;;;4984464;28;20038;-81
2022/12/24 04:32:05;;;;;;;68.85;10.88;;;;;;;;;;4981373;28;20031;-81
2022/12/24 04:34:31;;;;;;;81.75;9.73;;;;;;;;;;4987191;28;20038;-81
2022/12/24 04:36:57;;;;;;;70.07;9.68;;;;;;;;;;4989473;28;20033;-80
2022/12/24 04:39:24;;;;;;;77.63;12.45;;;;;;;;;;4986390;28;20213;-81
2022/12/24 04:41:50;;;;;;;62.35;8.88;;;;;;;;;;4982781;28;20129;-80
2022/12/24 04:44:16;;;;;;;67.88;9.73;;;;;;;;;;4993604;28;20018;-81
2022/12/24 04:46:42;;;;;;;82.63;10.18;;;;;;;;;;4986939;28;20037;-81
2022/12/24 04:49:10;;;;;;;63.70;9.77;;;;;;;;;;4988616;28;20140;-81
2022/12/24 04:51:36;;;;;;;75.53;9.13;;;;;;;;;;4983087;28;20038;-81
2022/12/24 04:54:02;;;;;;;66.22;8.63;;;;;;;;;;4988060;28;20034;-81
2022/12/24 04:56:29;;;;;;;70.75;8.45;;;;;;;;;;4984171;28;20023;-81
2022/12/24 04:58:55;;;;;;;76.32;10.32;;;;;;;;;;4988036;28;20531;-81
2022/12/24 05:01:23;;;;;;;60.03;8.35;;;;;;;;;;4982875;28;20099;-81
2022/12/24 05:03:50;;;;;;;74.30;10.20;;;;;;;;;;4988924;28;20076;-81
2022/12/24 05:06:17;;;;;;;71.15;8.73;;;;;;;;;;4998053;28;20050;-81
2022/12/24 05:08:43;;;;;;;57.28;8.55;;;;;;;;;;4997075;28;20093;-81
2022/12/24 05:11:15;;;;;;;59.70;8.30;;;;;;;;;;4983349;28;20026;-81
2022/12/24 05:13:42;;;;;;;81.72;9.35;;;;;;;;;;4985065;28;20584;-80
2022/12/24 05:16:09;;;;;;;65.45;9.57;;;;;;;;;;4986544;28;20073;-81
2022/12/24 05:18:35;;;;;;;80.13;8.43;;;;;;;;;;4988001;28;20431;-81
2022/12/24 05:21:01;;;;;;;71.68;9.45;;;;;;;;;;4984897;28;20045;-81
2022/12/24 05:26:21;;;;;;;63.88;11.05;;;;;;;;;;5004368;28;20419;-80
2022/12/24 05:28:48;;;;;;;68.10;9.45;;;;;;;;;;4988969;28;20031;-81
2022/12/24 05:31:14;;;;;;;57.85;9.32;;;;;;;;;;4990343;28;20097;-80
2022/12/24 05:33:40;;;;;;;61.65;7.57;;;;;;;;;;4986177;28;20034;-80
2022/12/24 05:36:07;;;;;;;53.40;7.95;;;;;;;;;;4989120;28;20027;-80
2022/12/24 05:38:33;;;;;;;58.63;8.00;;;;;;;;;;4972809;28;20050;-80
2022/12/24 05:40:59;;;;;;;60.28;8.05;;;;;;;;;;4991189;28;20084;-81
2022/12/24 05:43:25;;;;;;;72.82;11.07;;;;;;;;;;5004451;28;20712;-80
2022/12/24 05:45:51;;;;;;;54.80;8.23;;;;;;;;;;4990497;28;20117;-81
2022/12/24 05:48:18;;;;;;;56.55;8.32;;;;;;;;;;4992467;28;20035;-81
2022/12/24 05:50:44;;;;;;;65.50;8.25;;;;;;;;;;4988617;28;20041;-81
2022/12/24 05:53:10;;;;;;;69.60;9.75;;;;;;;;;;4987950;28;20030;-81
2022/12/24 05:55:36;;;;;;;65.00;7.38;;;;;;;;;;4991044;28;20030;-80
2022/12/24 05:58:02;;;;;;;69.35;9.05;;;;;;;;;;4992935;28;20043;-81
2022/12/24 06:00:28;;;;;;;73.75;10.00;;;;;;;;;;4989259;28;20054;-80
2022/12/24 06:02:54;;;;;;;78.93;8.25;;;;;;;;;;4990319;28;20068;-81
2022/12/24 06:05:20;;;;;;;80.80;9.95;;;;;;;;;;4990076;28;20449;-81
2022/12/24 06:07:46;;;;;;;55.75;8.27;;;;;;;;;;4997316;28;20060;-81
2022/12/24 06:10:13;;;;;;;78.28;9.90;;;;;;;;;;5001124;28;20058;-81
2022/12/24 06:12:39;;;;;;;66.72;9.25;;;;;;;;;;4998349;28;20113;-80
2022/12/24 06:15:05;;;;;;;68.32;8.25;;;;;;;;;;5010855;28;20113;-82
2022/12/24 06:17:32;;;;;;;55.45;8.43;;;;;;;;;;5028369;28;20070;-81
2022/12/24 06:19:58;;;;;;;63.45;9.00;;;;;;;;;;5007553;28;20038;-80
2022/12/24 06:22:24;;;;;;;72.40;9.10;;;;;;;;;;5013269;28;20049;-80
2022/12/24 06:24:51;;;;;;;79.18;9.75;;;;;;;;;;5017625;28;20049;-80
2022/12/24 06:27:17;;;;;;;68.70;9.13;;;;;;;;;;5014016;28;20082;-81
2022/12/24 06:29:43;;;;;;;85.55;11.45;;;;;;;;;;5015630;28;20206;-80
2022/12/24 06:32:09;;;;;;;83.60;10.75;;;;;;;;;;5012591;28;20116;-81
2022/12/24 06:34:35;;;;;;;95.70;12.00;;;;;;;;;;5023492;28;20030;-81
2022/12/24 06:37:01;;;;;;;87.28;10.57;;;;;;;;;;4999512;28;20030;-85
2022/12/24 06:39:27;;;;;;;70.97;9.20;;;;;;;;;;4992688;28;20038;-81
2022/12/24 06:41:53;;;;;;;94.80;12.63;;;;;;;;;;4991274;28;20042;-80
2022/12/24 06:44:19;;;;;;;81.05;8.55;;;;;;;;;;5008563;28;20034;-81
2022/12/24 06:46:46;;;;;;;73.30;11.50;;;;;;;;;;4996699;28;20134;-81
2022/12/24 06:49:12;;;;;;;89.22;13.65;;;;;;;;;;4993727;28;20035;-81
2022/12/24 06:51:38;;;;;;;95.57;9.90;;;;;;;;;;4991225;28;20120;-81
2022/12/24 06:54:04;;;;;;;65.63;10.32;;;;;;;;;;4994025;28;20100;-80
2022/12/24 06:56:30;;;;;;;100.63;10.27;;;;;;;;;;4993175;28;20461;-80
2022/12/24 06:58:56;;;;;;;91.28;11.90;;;;;;;;;;5008947;28;20034;-81
2022/12/24 07:01:23;;;;;;;80.63;11.80;;;;;;;;;;4992085;28;20026;-80
2022/12/24 07:03:49;;;;;;;91.25;10.80;;;;;;;;;;4993167;28;20031;-80
2022/12/24 07:06:18;;;;;;;87.35;10.02;;;;;;;;;;4994835;28;20046;-80
2022/12/24 07:08:45;;;;;;;99.93;10.60;;;;;;;;;;4995012;28;20114;-80
2022/12/24 07:11:11;;;;;;;87.18;11.07;;;;;;;;;;4993988;28;20023;-81
2022/12/24 07:13:37;;;;;;;76.72;10.32;;;;;;;;;;4992848;28;20037;-81
2022/12/24 07:16:04;;;;;;;88.30;11.75;;;;;;;;;;4990936;28;20031;-81
2022/12/24 07:18:30;;;;;;;101.00;11.90;;;;;;;;;;4995746;28;20125;-80
2022/12/24 07:20:56;;;;;;;102.00;14.20;;;;;;;;;;4993140;28;20061;-79
2022/12/24 07:23:23;;;;;;;93.97;10.63;;;;;;;;;;4993607;28;20444;-81
2022/12/24 07:25:49;;;;;;;109.43;14.13;;;;;;;;;;4991737;28;20030;-80
2022/12/24 07:28:15;;;;;;;88.95;12.05;;;;;;;;;;4993345;28;20037;-81
2022/12/24 07:30:41;;;;;;;91.82;10.63;;;;;;;;;;4992991;28;20034;-81
2022/12/24 07:33:07;;;;;;;108.45;12.02;;;;;;;;;;4994739;28;20116;-82
2022/12/24 07:35:33;;;;;;;89.90;11.90;;;;;;;;;;4990781;28;20038;-81
2022/12/24 07:37:59;;;;;;;104.13;13.30;;;;;;;;;;4992725;28;20439;-81
2022/12/24 07:40:26;;;;;;;93.35;11.02;;;;;;;;;;4989790;28;20488;-80
2022/12/24 07:42:52;;;;;;;90.53;13.13;;;;;;;;;;4991127;28;20034;-80
2022/12/24 07:45:18;;;;;;;93.85;12.43;;;;;;;;;;4990080;28;20495;-81
2022/12/24 07:47:44;;;;;;;94.72;12.20;;;;;;;;;;4991524;28;20042;-81
2022/12/24 07:50:10;;;;;;;82.47;11.60;;;;;;;;;;4990065;28;20407;-80
2022/12/24 07:52:36;;;;;;;83.93;10.88;;;;;;;;;;4986094;28;20535;-81
2022/12/24 07:55:02;;;;;;;104.22;13.00;;;;;;;;;;4977000;28;20109;-80
2022/12/24 07:57:28;;;;;;;93.22;10.40;;;;;;;;;;4980170;28;20342;-80
2022/12/24 07:59:55;;;;;;;88.78;13.00;;;;;;;;;;4973689;28;20092;-79
2022/12/24 08:02:21;;;;;;;87.15;11.00;;;;;;;;;;5004321;28;20035;-81
2022/12/24 08:04:47;;;;;;;89.15;13.02;;;;;;;;;;4986807;28;20117;-81
2022/12/24 08:07:13;;;;;;;76.43;10.57;;;;;;;;;;5002990;28;20129;-80
2022/12/24 08:09:39;;;;;;;84.45;10.35;;;;;;;;;;4990586;28;20022;-81
2022/12/24 08:12:05;;;;;;;75.75;9.13;;;;;;;;;;4990404;28;20101;-80
2022/12/24 08:14:32;;;;;;;89.53;10.50;;;;;;;;;;4991142;28;20455;-81
2022/12/24 08:16:58;;;;;;;92.10;11.23;;;;;;;;;;5002954;28;20042;-81
2022/12/24 08:19:24;;;;;;;88.55;10.60;;;;;;;;;;4973342;28;20031;-81
2022/12/24 08:21:50;;;;;;;81.47;12.90;;;;;;;;;;4975680;28;20082;-81
2022/12/24 08:24:16;;;;;;;74.25;9.32;;;;;;;;;;4987920;28;20404;-81
2022/12/24 08:26:42;;;;;;;101.65;12.07;;;;;;;;;;4988808;28;20041;-80
2022/12/24 08:29:08;;;;;;;107.30;11.35;;;;;;;;;;5006663;28;20030;-80
2022/12/24 08:31:35;;;;;;;90.90;10.85;;;;;;;;;;4988271;28;20038;-81
2022/12/24 08:34:05;;;;;;;76.35;8.70;;;;;;;;;;4989791;28;20046;-80
2022/12/24 08:36:31;;;;;;;89.80;13.10;;;;;;;;;;4988773;28;20538;-81
2022/12/24 08:38:58;;;;;;;100.13;11.40;;;;;;;;;;4988978;28;20216;-81
2022/12/24 08:41:24;;;;;;;73.40;10.82;;;;;;;;;;4985220;28;20026;-81
2022/12/24 08:43:50;;;;;;;74.53;11.73;;;;;;;;;;4987264;28;20034;-80
2022/12/24 08:46:16;;;;;;;94.82;11.23;;;;;;;;;;4980502;28;20030;-81
2022/12/24 08:48:42;;;;;;;83.30;11.30;;;;;;;;;;4976008;28;20042;-79
2022/12/24 08:51:10;;;;;;;74.93;9.30;;;;;;;;;;4991059;28;20060;-80
2022/12/24 08:53:36;;;;;;;92.28;10.65;;;;;;;;;;5003266;28;20444;-81
2022/12/24 08:56:03;;;;;;;78.63;11.32;;;;;;;;;;5004980;28;20384;-81
2022/12/24 08:58:29;;;;;;;82.25;10.73;;;;;;;;;;4989195;28;20341;-81
2022/12/24 09:00:56;;;;;;;86.22;13.27;;;;;;;;;;5002481;28;20030;-80
2022/12/24 09:03:22;;;;;;;99.30;12.57;;;;;;;;;;5001299;28;20035;-81
2022/12/24 09:05:48;;;;;;;80.45;10.50;;;;;;;;;;4988821;28;20055;-80
2022/12/24 09:08:14;;;;;;;85.00;11.25;;;;;;;;;;4982928;28;20022;-80
2022/12/24 09:10:40;;;;;;;84.47;10.35;;;;;;;;;;4981649;28;20554;-80
2022/12/24 09:13:06;;;;;;;82.78;10.68;;;;;;;;;;4960558;28;20097;-81
2022/12/24 09:15:32;;;;;;;72.18;10.30;;;;;;;;;;4997286;28;20041;-79
2022/12/24 09:17:59;;;;;;;83.10;11.48;;;;;;;;;;4988787;28;20041;-82
2022/12/24 09:20:26;;;;;;;74.30;9.40;;;;;;;;;;4987224;28;20035;-81
2022/12/24 09:22:52;;;;;;;73.72;10.38;;;;;;;;;;4988626;28;20022;-80
2022/12/24 09:25:18;;;;;;;90.18;12.05;;;;;;;;;;4989062;28;20037;-80
2022/12/24 09:27:44;;;;;;;80.38;11.35;;;;;;;;;;4988547;28;20038;-80
2022/12/24 09:30:11;;;;;;;69.22;9.85;;;;;;;;;;5005503;28;20403;-80
2022/12/24 09:32:37;;;;;;;76.43;10.30;;;;;;;;;;4991148;28;20041;-80
2022/12/24 09:35:03;;;;;;;64.00;9.43;;;;;;;;;;4980774;28;20479;-80
2022/12/24 09:37:29;;;;;;;73.63;9.35;;;;;;;;;;4989964;28;20398;-79
2022/12/24 09:39:55;;;;;;;61.67;10.55;;;;;;;;;;4984020;28;20130;-80
2022/12/24 09:42:41;;;;;;;62.83;8.98;;;;;;;;;;4989279;28;20061;-80
2022/12/24 09:45:10;;;;;;;63.78;9.82;;;;;;;;;;4987011;28;20031;-79
2022/12/24 09:47:41;;;;;;;59.88;10.38;;;;;;;;;;4988934;28;20045;-85
2022/12/24 09:50:21;;;;;;;70.47;12.38;;;;;;;;;;4982511;28;20479;-80
2022/12/24 09:52:48;;;;;;;63.22;9.00;;;;;;;;;;4989525;28;20361;-80
2022/12/24 09:55:21;;;;;;;62.38;8.85;;;;;;;;;;4986279;28;20070;-80
2022/12/24 09:57:49;;;;;;;61.58;9.10;;;;;;;;;;5003392;28;20065;-80
2022/12/24 10:00:18;;;;;;;57.70;8.77;;;;;;;;;;4995017;28;20439;-80
2022/12/24 10:02:44;;;;;;;52.88;7.40;;;;;;;;;;5000527;28;20507;-80
2022/12/24 10:05:14;;;;;;;54.60;8.18;;;;;;;;;;5019635;28;20651;-80
2022/12/24 10:08:10;;;;;;;61.03;8.45;;;;;;;;;;4995746;28;20491;-80
2022/12/24 10:10:48;;;;;;;50.00;8.38;;;;;;;;;;4979278;28;20042;-79
2022/12/24 10:13:33;;;;;;;67.95;8.98;;;;;;;;;;4991061;28;20425;-80
2022/12/24 10:16:08;;;;;;;58.20;8.50;;;;;;;;;;5009757;28;20025;-80
2022/12/24 10:18:38;;;;;;;52.47;7.45;;;;;;;;;;5003605;28;20039;-80
2022/12/24 10:21:14;;;;;;;67.50;9.60;;;;;;;;;;5005952;28;20463;-81
2022/12/24 10:23:59;;;;;;;47.38;6.28;;;;;;;;;;4990477;28;20391;-82
2022/12/24 10:26:28;;;;;;;47.78;7.20;;;;;;;;;;4983415;28;20030;-80
2022/12/24 10:29:00;;;;;;;51.35;7.32;;;;;;;;;;4989565;28;20031;-81
2022/12/24 10:31:28;;;;;;;57.60;7.03;;;;;;;;;;4991984;28;20207;-80
2022/12/24 10:34:00;;;;;;;48.30;6.93;;;;;;;;;;4991938;28;20042;-80
2022/12/24 10:36:30;;;;;;;60.83;10.20;;;;;;;;;;4993382;28;20034;-81
2022/12/24 10:38:56;;;;;;;48.58;6.70;;;;;;;;;;4992431;28;20022;-80
2022/12/24 10:41:41;;;;;;;47.88;8.30;;;;;;;;;;5000781;28;20234;-81
2022/12/24 10:44:10;;;;;;;43.08;7.97;;;;;;;;;;4993021;28;20060;-81
2022/12/24 10:46:56;;;;;;;51.25;8.02;;;;;;;;;;5012574;28;20049;-80
2022/12/24 10:49:34;;;;;;;53.40;7.28;;;;;;;;;;5014408;28;20057;-79
2022/12/24 10:52:11;;;;;;;45.03;6.70;;;;;;;;;;5018873;28;20025;-82
2022/12/24 10:54:40;;;;;;;54.80;7.18;;;;;;;;;;5032904;28;20019;-80
2022/12/24 10:57:22;;;;;;;41.63;7.70;;;;;;;;;;5017366;28;20030;-82
2022/12/24 10:59:53;;;;;;;53.75;8.85;;;;;;;;;;5018043;28;20035;-79
2022/12/24 11:02:19;;;;;;;;;;;;;;;;;;5018148;28;20038;-81
2022/12/24 11:04:47;;;;;;;51.75;6.95;;;;;;;;;;5008757;28;19897;-81
2022/12/24 11:07:18;;;;;;;65.15;8.10;;;;;;;;;;4986412;28;20046;-81
2022/12/24 11:09:53;;;;;;;43.53;6.65;;;;;;;;;;5016230;28;20030;-80
2022/12/24 11:12:22;;;;;;;43.00;6.90;;;;;;;;;;4996108;28;20037;-80
2022/12/24 11:14:48;;;;;;;50.30;7.63;;;;;;;;;;4992376;28;20031;-81
2022/12/24 11:17:20;;;;;;;47.53;8.30;;;;;;;;;;4991605;28;20514;-80
2022/12/24 11:19:47;;;;;;;43.05;6.72;;;;;;;;;;4994170;28;20026;-81
2022/12/24 11:22:23;;;;;;;45.63;7.75;;;;;;;;;;4993869;28;20030;-80
2022/12/24 11:25:00;;;;;;;44.00;6.40;;;;;;;;;;4992899;28;20034;-80
2022/12/24 11:27:32;;;;;;;41.65;7.32;;;;;;;;;;4991225;28;20403;-80
2022/12/24 11:30:22;;;;;;;35.25;6.05;;;;;;;;;;4993023;28;20144;-81
2022/12/24 11:32:49;;;;;;;39.22;6.07;;;;;;;;;;4986340;28;20057;-79
2022/12/24 11:35:22;;;;;;;43.45;7.50;;;;;;;;;;4990581;28;20125;-79
2022/12/24 11:38:04;;;;;;;45.90;7.22;;;;;;;;;;4991201;28;20093;-81
2022/12/24 11:40:40;;;;;;;46.33;6.75;;;;;;;;;;4991311;28;20121;-81
2022/12/24 11:43:13;;;;;;;37.92;6.72;;;;;;;;;;4992197;28;20061;-81
2022/12/24 11:45:39;;;;;;;36.92;6.43;;;;;;;;;;4990542;28;20034;-81
2022/12/24 11:48:23;;;;;;;36.38;5.63;;;;;;;;;;5007352;28;20461;-80
2022/12/24 11:50:55;;;;;;;43.42;7.22;;;;;;;;;;4990981;28;20034;-80
2022/12/24 11:53:23;;;;;;;39.15;6.38;;;;;;;;;;4989779;28;20034;-80
2022/12/24 11:55:55;;;;;;;50.33;7.00;;;;;;;;;;4982390;28;20038;-81
2022/12/24 11:58:36;;;;;;;33.55;5.25;;;;;;;;;;4989801;28;20340;-80
2022/12/24 12:01:10;;;;;;;36.05;5.85;;;;;;;;;;4989587;28;20030;-80
2022/12/24 12:03:39;;;;;;;41.08;6.78;;;;;;;;;;4990249;28;20035;-80
2022/12/24 12:06:14;;;;;;;37.13;5.80;;;;;;;;;;4986776;28;20043;-81
2022/12/24 12:08:40;;;;;;;44.53;6.85;;;;;;;;;;4987398;28;20507;-80
2022/12/24 12:11:12;;;;;;;45.28;5.10;;;;;;;;;;4989716;28;20033;-81
2022/12/24 12:13:40;;;;;;;42.05;6.30;;;;;;;;;;4991412;28;20030;-80
2022/12/24 12:16:09;;;;;;;32.72;5.07;;;;;;;;;;4988302;28;20039;-81
2022/12/24 12:18:38;;;;;;;37.40;5.38;;;;;;;;;;4984451;28;20042;-81
2022/12/24 12:21:06;;;;;;;45.00;7.13;;;;;;;;;;4985127;28;20053;-82
2022/12/24 12:23:35;;;;;;;39.15;6.13;;;;;;;;;;4981852;28;20053;-82
2022/12/24 12:26:03;;;;;;;41.08;5.40;;;;;;;;;;4990275;28;20034;-81
2022/12/24 12:28:36;;;;;;;36.60;6.10;;;;;;;;;;4989055;28;20039;-81
2022/12/24 12:31:05;;;;;;;34.92;5.82;;;;;;;;;;4988236;28;20038;-80
2022/12/24 12:33:44;;;;;;;38.78;6.30;;;;;;;;;;4990118;28;20022;-81
2022/12/24 12:36:11;;;;;;;36.35;6.20;;;;;;;;;;4990072;28;20073;-82
2022/12/24 12:38:38;;;;;;;37.45;6.85;;;;;;;;;;4990728;28;20088;-82
2022/12/24 12:41:04;;;;;;;39.53;6.80;;;;;;;;;;4990015;28;20100;-81
2022/12/24 12:43:36;;;;;;;42.90;7.32;;;;;;;;;;4991009;28;20086;-81
2022/12/24 12:46:11;;;;;;;43.58;6.05;;;;;;;;;;4991416;28;20109;-82
2022/12/24 12:48:50;;;;;;;44.10;6.78;;;;;;;;;;4990374;28;20045;-79
2022/12/24 12:51:24;;;;;;;39.08;5.93;;;;;;;;;;4985114;28;20381;-81
2022/12/24 12:53:56;;;;;;;53.17;7.10;;;;;;;;;;4990704;28;20119;-81
2022/12/24 12:56:23;;;;;;;38.92;6.82;;;;;;;;;;4988337;28;20034;-80
2022/12/24 12:58:50;;;;;;;44.67;6.28;;;;;;;;;;4991152;28;20368;-78
2022/12/24 13:01:34;;;;;;;39.08;6.43;;;;;;;;;;4995905;28;20474;-80
2022/12/24 13:04:13;;;;;;;34.25;5.80;;;;;;;;;;5011342;28;20033;-80
2022/12/24 13:07:05;;;;;;;42.45;6.15;;;;;;;;;;4992736;28;20053;-80
2022/12/24 13:09:31;;;;;;;46.13;7.28;;;;;;;;;;5004847;28;20452;-80
2022/12/24 13:12:11;;;;;;;38.20;6.20;;;;;;;;;;4990367;28;20113;-79
2022/12/24 13:14:50;;;;;;;36.25;7.15;;;;;;;;;;4990005;28;20038;-80
2022/12/24 13:17:16;;;;;;;39.53;6.03;;;;;;;;;;4990642;28;20057;-81
2022/12/24 13:19:48;;;;;;;46.03;6.20;;;;;;;;;;4986340;28;20042;-81
2022/12/24 13:22:16;;;;;;;53.15;7.00;;;;;;;;;;4988207;28;20507;-81
2022/12/24 13:24:47;;;;;;;41.70;7.15;;;;;;;;;;4987430;28;20041;-79
2022/12/24 13:27:18;;;;;;;33.55;5.95;;;;;;;;;;4978701;28;20407;-81
2022/12/24 13:29:53;;;;;;;39.67;5.38;;;;;;;;;;4987557;28;20061;-81
2022/12/24 13:32:19;;;;;;;41.97;6.50;;;;;;;;;;4989493;28;20041;-80
2022/12/24 13:34:50;;;;;;;37.53;7.05;;;;;;;;;;4990980;28;20436;-79
2022/12/24 13:37:23;;;;;;;37.22;5.90;;;;;;;;;;4987930;28;20053;-79
2022/12/24 13:40:07;;;;;;;41.15;5.95;;;;;;;;;;5010547;28;20391;-79
2022/12/24 13:42:52;;;;;;;42.55;5.75;;;;;;;;;;5013242;28;20030;-80
2022/12/24 13:45:30;;;;;;;44.33;6.38;;;;;;;;;;4997635;28;20377;-80
2022/12/24 13:47:59;;;;;;;;;;;;;;;;;;4975975;28;20046;-80
2022/12/24 13:50:34;;;;;;;35.63;5.75;;;;;;;;;;4983508;28;19914;-79
2022/12/24 13:53:01;;;;;;;44.28;6.32;;;;;;;;;;4993366;28;20031;-80
2022/12/24 13:55:27;;;;;;;43.88;7.18;;;;;;;;;;4977074;28;20031;-80
2022/12/24 13:57:56;;;;;;;35.15;5.43;;;;;;;;;;4993115;28;20037;-80
2022/12/24 14:00:43;;;;;;;40.22;5.35;;;;;;;;;;4992720;28;20105;-80
2022/12/24 14:03:12;;;;;;;41.13;7.28;;;;;;;;;;4992940;28;20034;-79
2022/12/24 14:05:47;;;;;;;33.10;5.22;;;;;;;;;;4992545;28;20531;-79
2022/12/24 14:08:22;;;;;;;41.15;6.18;;;;;;;;;;4992843;28;20404;-80
2022/12/24 14:10:57;;;;;;;38.80;5.15;;;;;;;;;;4983853;28;20794;-79
2022/12/24 14:13:39;;;;;;;35.92;5.20;;;;;;;;;;4974470;28;20037;-79
2022/12/24 14:16:09;;;;;;;39.42;6.63;;;;;;;;;;4974620;28;20081;-79
2022/12/24 14:18:38;;;;;;;38.05;6.50;;;;;;;;;;4999711;28;20069;-79
2022/12/24 14:21:05;;;;;;;32.28;5.35;;;;;;;;;;4992657;28;20567;-81
2022/12/24 14:23:35;;;;;;;35.42;5.55;;;;;;;;;;4992745;28;20072;-79
2022/12/24 14:26:02;;;;;;;40.38;5.43;;;;;;;;;;4991860;28;20445;-79
2022/12/24 14:28:41;;;;;;;33.17;5.70;;;;;;;;;;4992263;28;20077;-80
2022/12/24 14:31:13;;;;;;;40.45;5.85;;;;;;;;;;4992480;28;20451;-79
2022/12/24 14:33:39;;;;;;;31.05;5.65;;;;;;;;;;4992273;28;20068;-79
2022/12/24 14:36:05;;;;;;;32.30;6.80;;;;;;;;;;4991912;28;20121;-80
2022/12/24 14:38:34;;;;;;;39.13;6.10;;;;;;;;;;4993401;28;20093;-80
2022/12/24 14:41:08;;;;;;;36.45;6.78;;;;;;;;;;4994271;28;20403;-79
2022/12/24 14:43:53;;;;;;;33.47;6.40;;;;;;;;;;4992825;28;20452;-79
2022/12/24 14:46:23;;;;;;;36.30;5.10;;;;;;;;;;4993446;28;20117;-79
2022/12/24 14:48:53;;;;;;;38.28;6.68;;;;;;;;;;4991838;28;20103;-80